createdAt,value
2023-02-26T00:01:14.787Z,1.00
2023-02-26T00:03:41.761Z,1.00
2023-02-26T00:06:09.967Z,1.10
2023-02-26T00:08:36.851Z,1.10
2023-02-26T00:11:07.871Z,1.10
2023-02-26T00:13:36.968Z,1.00
2023-02-26T00:16:13.259Z,1.10
2023-02-26T00:18:40.757Z,1.10
2023-02-26T00:21:09.402Z,1.10
2023-02-26T00:23:36.717Z,1.10
2023-02-26T00:26:03.536Z,1.10
2023-02-26T00:28:30.612Z,1.10
2023-02-26T00:30:57.789Z,1.10
2023-02-26T00:33:25.092Z,1.20
2023-02-26T00:36:00.227Z,1.10
2023-02-26T00:38:30.227Z,1.20
2023-02-26T00:40:57.481Z,1.20
2023-02-26T00:43:28.468Z,1.20
2023-02-26T00:46:18.899Z,1.20
2023-02-26T00:48:54.989Z,1.20
2023-02-26T00:51:36.245Z,1.00
2023-02-26T00:54:16.909Z,1.00
2023-02-26T00:56:46.097Z,1.00
2023-02-26T00:59:12.869Z,1.10
2023-02-26T01:01:39.841Z,1.10
2023-02-26T01:04:07.411Z,1.10
2023-02-26T01:06:38.784Z,1.00
2023-02-26T01:09:16.014Z,1.00
2023-02-26T01:11:43.764Z,1.00
2023-02-26T01:14:11.190Z,0.90
2023-02-26T01:16:47.705Z,0.90
2023-02-26T01:19:29.587Z,0.90
2023-02-26T01:22:11.950Z,0.90
2023-02-26T01:24:39.562Z,0.90
2023-02-26T01:27:06.607Z,0.90
2023-02-26T01:29:34.232Z,0.90
2023-02-26T01:32:28.802Z,0.90
2023-02-26T01:35:12.365Z,0.90
2023-02-26T01:37:49.145Z,0.80
2023-02-26T01:40:52.089Z,0.80
2023-02-26T01:44:03.365Z,0.90
2023-02-26T01:46:45.514Z,0.90
2023-02-26T01:49:17.801Z,0.90
2023-02-26T01:51:47.756Z,0.80
2023-02-26T01:54:16.799Z,0.90
2023-02-26T01:56:45.771Z,0.90
2023-02-26T01:59:16.340Z,0.90
2023-02-26T02:01:43.925Z,0.90
2023-02-26T02:04:14.927Z,0.90
2023-02-26T02:06:43.288Z,0.90
2023-02-26T02:09:11.182Z,1.00
2023-02-26T02:11:49.476Z,1.00
2023-02-26T02:14:35.361Z,1.00
2023-02-26T02:17:16.060Z,1.00
2023-02-26T02:19:55.957Z,1.00
2023-02-26T02:22:31.530Z,1.00
2023-02-26T02:25:22.693Z,0.90
2023-02-26T02:28:07.899Z,0.90
2023-02-26T02:30:52.109Z,0.90
2023-02-26T02:33:24.014Z,0.90
2023-02-26T02:36:01.476Z,0.90
2023-02-26T02:38:40.706Z,0.90
2023-02-26T02:41:20.672Z,1.00
2023-02-26T02:43:49.719Z,1.00
2023-02-26T02:46:27.266Z,1.00
2023-02-26T02:49:06.052Z,1.00
2023-02-26T02:51:37.800Z,1.00
2023-02-26T02:54:18.731Z,1.10
2023-02-26T02:57:08.728Z,1.10
2023-02-26T02:59:43.635Z,1.20
2023-02-26T03:02:31.767Z,1.20
2023-02-26T03:04:59.236Z,1.10
2023-02-26T03:07:26.503Z,1.20
2023-02-26T03:09:55.149Z,1.10
2023-02-26T03:12:22.302Z,0.90
2023-02-26T03:14:49.217Z,1.00
2023-02-26T03:17:31.000Z,1.00
2023-02-26T03:20:35.720Z,1.00
2023-02-26T03:23:14.616Z,1.00
2023-02-26T03:26:03.350Z,1.00
2023-02-26T03:28:38.267Z,1.00
2023-02-26T03:31:22.690Z,0.90
2023-02-26T03:34:03.524Z,0.90
2023-02-26T03:36:33.910Z,0.90
2023-02-26T03:39:13.121Z,0.90
2023-02-26T03:41:46.399Z,0.80
2023-02-26T03:44:29.132Z,0.90
2023-02-26T03:47:00.881Z,1.00
2023-02-26T03:49:38.831Z,0.90
2023-02-26T03:52:07.290Z,0.80
2023-02-26T03:54:59.778Z,0.80
2023-02-26T03:57:26.748Z,0.80
2023-02-26T03:59:54.144Z,0.90
2023-02-26T04:02:33.769Z,0.80
2023-02-26T04:05:17.657Z,0.80
2023-02-26T04:07:47.180Z,0.80
2023-02-26T04:10:21.695Z,0.80
2023-02-26T04:12:48.470Z,0.80
2023-02-26T04:15:15.287Z,0.70
2023-02-26T04:17:42.182Z,0.70
2023-02-26T04:20:12.619Z,0.70
2023-02-26T04:22:40.108Z,0.70
2023-02-26T04:25:07.236Z,0.80
2023-02-26T04:27:34.368Z,0.70
2023-02-26T04:30:01.185Z,0.70
2023-02-26T04:32:28.323Z,0.80
2023-02-26T04:34:55.122Z,0.80
2023-02-26T04:37:21.846Z,0.70
2023-02-26T04:39:48.629Z,0.70
2023-02-26T04:42:15.400Z,0.70
2023-02-26T04:44:42.712Z,0.70
2023-02-26T04:47:09.467Z,0.70
2023-02-26T04:49:36.300Z,0.80
2023-02-26T04:52:03.460Z,0.80
2023-02-26T04:54:30.484Z,0.90
2023-02-26T04:56:57.414Z,0.80
2023-02-26T04:59:24.323Z,0.90
2023-02-26T05:01:51.520Z,0.80
2023-02-26T05:04:18.768Z,0.70
2023-02-26T05:06:45.540Z,0.70
2023-02-26T05:09:12.337Z,0.70
2023-02-26T05:11:39.132Z,0.70
2023-02-26T05:14:06.358Z,0.80
2023-02-26T05:16:33.166Z,0.70
2023-02-26T05:19:00.368Z,0.70
2023-02-26T05:21:27.112Z,0.70
2023-02-26T05:23:53.922Z,0.70
2023-02-26T05:26:21.025Z,0.70
2023-02-26T05:28:47.835Z,0.70
2023-02-26T05:31:15.557Z,0.70
2023-02-26T05:33:43.149Z,0.70
2023-02-26T05:36:10.560Z,0.80
2023-02-26T05:38:37.703Z,0.80
2023-02-26T05:41:05.007Z,0.70
2023-02-26T05:43:33.984Z,0.70
2023-02-26T05:46:00.991Z,0.80
2023-02-26T05:48:28.436Z,0.70
2023-02-26T05:50:55.216Z,0.70
2023-02-26T05:53:22.054Z,0.70
2023-02-26T05:55:49.571Z,0.80
2023-02-26T05:58:16.747Z,0.80
2023-02-26T06:00:44.274Z,0.70
2023-02-26T06:03:11.149Z,0.70
2023-02-26T06:05:37.993Z,0.80
2023-02-26T06:08:06.153Z,0.80
2023-02-26T06:10:33.433Z,0.80
2023-02-26T06:13:00.160Z,0.80
2023-02-26T06:15:26.931Z,0.80
2023-02-26T06:17:53.715Z,0.80
2023-02-26T06:20:20.672Z,0.90
2023-02-26T06:22:47.400Z,1.00
2023-02-26T06:25:14.265Z,1.00
2023-02-26T06:27:41.433Z,1.00
2023-02-26T06:30:08.886Z,1.00
2023-02-26T06:32:35.715Z,0.90
2023-02-26T06:35:02.575Z,0.90
2023-02-26T06:37:29.816Z,0.90
2023-02-26T06:39:56.956Z,0.90
2023-02-26T06:42:23.750Z,1.00
2023-02-26T06:44:50.528Z,1.00
2023-02-26T06:47:17.289Z,1.00
2023-02-26T06:49:44.057Z,1.10
2023-02-26T06:52:11.203Z,1.10
2023-02-26T06:54:38.285Z,1.10
2023-02-26T06:57:05.045Z,1.10
2023-02-26T06:59:32.150Z,1.10
2023-02-26T07:01:58.893Z,1.20
2023-02-26T07:04:25.714Z,1.20
2023-02-26T07:06:52.497Z,1.10
2023-02-26T07:09:22.365Z,1.20
2023-02-26T07:11:49.350Z,1.20
2023-02-26T07:14:17.797Z,1.20
2023-02-26T07:16:44.866Z,1.30
2023-02-26T07:19:11.603Z,1.20
2023-02-26T07:21:38.352Z,1.10
2023-02-26T07:24:05.649Z,1.20
2023-02-26T07:26:32.414Z,1.30
2023-02-26T07:28:59.626Z,1.40
2023-02-26T07:31:27.009Z,1.40
2023-02-26T07:33:53.949Z,1.40
2023-02-26T07:36:21.107Z,1.60
2023-02-26T07:38:48.291Z,1.50
2023-02-26T07:41:15.640Z,1.40
2023-02-26T07:43:42.706Z,1.30
2023-02-26T07:46:09.890Z,1.20
2023-02-26T07:48:37.210Z,1.20
2023-02-26T07:51:05.182Z,1.30
2023-02-26T07:53:31.921Z,1.30
2023-02-26T07:56:01.470Z,1.40
2023-02-26T07:58:28.330Z,1.40
2023-02-26T08:00:55.567Z,1.50
2023-02-26T08:03:22.315Z,1.60
2023-02-26T08:05:49.596Z,1.60
2023-02-26T08:08:16.363Z,1.60
2023-02-26T08:10:43.402Z,1.60
2023-02-26T08:13:10.670Z,1.70
2023-02-26T08:15:37.544Z,1.50
2023-02-26T08:18:04.421Z,1.50
2023-02-26T08:20:32.479Z,1.50
2023-02-26T08:22:59.288Z,1.50
2023-02-26T08:25:26.115Z,1.50
2023-02-26T08:27:52.906Z,1.80
2023-02-26T08:30:20.108Z,1.80
2023-02-26T08:32:47.587Z,1.80
2023-02-26T08:35:14.403Z,1.90
2023-02-26T08:37:41.163Z,1.90
2023-02-26T08:40:09.717Z,1.90
2023-02-26T08:42:36.945Z,2.00
2023-02-26T08:45:07.048Z,2.20
2023-02-26T08:47:39.360Z,2.10
2023-02-26T08:50:07.200Z,2.00
2023-02-26T08:52:34.051Z,2.00
2023-02-26T08:55:00.791Z,2.00
2023-02-26T08:57:28.512Z,2.00
2023-02-26T08:59:56.836Z,2.00
2023-02-26T09:02:23.625Z,2.10
2023-02-26T09:04:50.806Z,2.20
2023-02-26T09:07:17.576Z,2.20
2023-02-26T09:09:44.333Z,2.20
2023-02-26T09:12:11.145Z,2.20
2023-02-26T09:14:38.082Z,2.00
2023-02-26T09:17:06.013Z,2.10
2023-02-26T09:19:33.114Z,2.10
2023-02-26T09:21:59.851Z,2.00
2023-02-26T09:24:28.117Z,2.00
2023-02-26T09:26:55.353Z,2.10
2023-02-26T09:29:23.170Z,2.30
2023-02-26T09:31:50.431Z,2.10
2023-02-26T09:34:17.829Z,2.00
2023-02-26T09:36:45.168Z,2.10
2023-02-26T09:39:12.355Z,2.40
2023-02-26T09:41:44.378Z,2.60
2023-02-26T09:44:20.154Z,2.60
2023-02-26T09:47:09.313Z,2.70
2023-02-26T09:50:06.376Z,2.80
2023-02-26T09:53:13.098Z,2.80
2023-02-26T09:55:50.603Z,2.90
2023-02-26T09:58:27.428Z,3.00
2023-02-26T10:01:10.848Z,3.10
2023-02-26T10:04:16.119Z,2.90
2023-02-26T10:07:04.914Z,2.90
2023-02-26T10:09:56.693Z,2.70
2023-02-26T10:12:26.326Z,2.50
2023-02-26T10:15:12.589Z,2.40
2023-02-26T10:18:06.604Z,2.30
2023-02-26T10:20:52.733Z,2.60
2023-02-26T10:23:29.278Z,2.60
2023-02-26T10:26:22.503Z,2.90
2023-02-26T10:29:12.118Z,3.10
2023-02-26T10:31:59.279Z,3.50
2023-02-26T10:34:28.885Z,3.30
2023-02-26T10:37:14.445Z,3.10
2023-02-26T10:40:09.839Z,3.00
2023-02-26T10:43:00.162Z,2.90
2023-02-26T10:45:44.324Z,2.80
2023-02-26T10:48:46.175Z,3.00
2023-02-26T10:51:18.429Z,3.30
2023-02-26T10:53:54.113Z,3.50
2023-02-26T10:56:26.500Z,3.40
2023-02-26T10:58:55.064Z,3.40
2023-02-26T11:01:24.694Z,3.40
2023-02-26T11:04:02.230Z,3.60
2023-02-26T11:06:48.395Z,3.70
2023-02-26T11:09:40.037Z,3.80
2023-02-26T11:12:15.924Z,4.10
2023-02-26T11:14:45.128Z,3.80
2023-02-26T11:17:16.726Z,3.60
2023-02-26T11:19:53.925Z,3.60
2023-02-26T11:22:23.113Z,3.70
2023-02-26T11:24:51.913Z,3.80
2023-02-26T11:27:25.705Z,4.00
2023-02-26T11:29:59.552Z,4.00
2023-02-26T11:32:40.285Z,3.90
2023-02-26T11:35:17.599Z,3.60
2023-02-26T11:37:53.488Z,3.30
2023-02-26T11:40:28.111Z,3.40
2023-02-26T11:43:05.931Z,3.50
2023-02-26T11:45:42.882Z,3.50
2023-02-26T11:48:15.378Z,3.40
2023-02-26T11:50:46.743Z,3.40
2023-02-26T11:53:38.268Z,3.40
2023-02-26T11:56:15.175Z,3.40
2023-02-26T11:58:46.280Z,3.40
2023-02-26T12:01:20.778Z,3.30
2023-02-26T12:03:53.505Z,3.40
2023-02-26T12:06:24.804Z,3.80
2023-02-26T12:08:53.399Z,4.10
2023-02-26T12:11:39.710Z,4.10
2023-02-26T12:14:26.500Z,3.50
2023-02-26T12:17:20.693Z,2.20
2023-02-26T12:20:19.842Z,1.50
2023-02-26T12:23:18.248Z,1.50
2023-02-26T12:26:15.726Z,1.50
2023-02-26T12:29:11.135Z,1.60
2023-02-26T12:32:08.882Z,1.70
2023-02-26T12:34:41.288Z,1.90
2023-02-26T12:37:45.387Z,2.10
2023-02-26T12:40:31.335Z,2.30
2023-02-26T12:43:13.699Z,2.30
2023-02-26T12:46:07.292Z,2.30
2023-02-26T12:48:44.285Z,2.20
2023-02-26T12:51:19.669Z,2.10
2023-02-26T12:53:53.421Z,2.00
2023-02-26T12:56:39.682Z,1.90
2023-02-26T12:59:12.818Z,2.00
2023-02-26T13:02:05.911Z,2.10
2023-02-26T13:04:47.324Z,2.20
2023-02-26T13:07:40.505Z,2.10
2023-02-26T13:10:21.374Z,2.00
2023-02-26T13:13:19.485Z,2.00
2023-02-26T13:16:03.420Z,2.10
2023-02-26T13:18:59.015Z,2.00
2023-02-26T13:21:37.634Z,2.00
2023-02-26T13:24:30.128Z,2.10
2023-02-26T13:26:59.193Z,2.20
2023-02-26T13:29:58.562Z,2.40
2023-02-26T13:32:27.785Z,2.70
2023-02-26T13:35:04.214Z,2.40
2023-02-26T13:37:40.655Z,2.40
2023-02-26T13:40:41.555Z,2.30
2023-02-26T13:43:46.358Z,2.20
2023-02-26T13:46:33.580Z,2.20
2023-02-26T13:49:29.408Z,2.40
2023-02-26T13:51:57.719Z,2.50
2023-02-26T13:54:59.226Z,2.40
2023-02-26T13:57:51.742Z,2.30
2023-02-26T14:00:35.922Z,2.20
2023-02-26T14:03:30.575Z,2.10
2023-02-26T14:06:34.943Z,2.10
2023-02-26T14:09:05.117Z,2.20
2023-02-26T14:12:12.986Z,2.00
2023-02-26T14:15:04.615Z,2.10
2023-02-26T14:17:52.306Z,2.20
2023-02-26T14:20:26.520Z,2.30
2023-02-26T14:23:11.165Z,2.70
2023-02-26T14:25:42.445Z,3.10
2023-02-26T14:28:27.882Z,3.40
2023-02-26T14:31:04.303Z,3.40
2023-02-26T14:33:37.675Z,3.30
2023-02-26T14:36:10.682Z,2.90
2023-02-26T14:38:39.561Z,2.30
2023-02-26T14:41:31.433Z,1.80
2023-02-26T14:44:06.616Z,1.60
2023-02-26T14:46:37.183Z,1.40
2023-02-26T14:49:04.517Z,1.30
2023-02-26T14:51:48.967Z,1.40
2023-02-26T14:54:24.689Z,1.40
2023-02-26T14:57:20.865Z,1.60
2023-02-26T14:59:54.043Z,1.50
2023-02-26T15:02:32.294Z,1.30
2023-02-26T15:05:07.905Z,1.20
2023-02-26T15:07:49.973Z,1.00
2023-02-26T15:10:47.866Z,1.00
2023-02-26T15:13:25.129Z,1.10
2023-02-26T15:16:06.171Z,1.10
2023-02-26T15:18:48.089Z,1.10
2023-02-26T15:21:24.364Z,1.10
2023-02-26T15:23:54.578Z,1.10
2023-02-26T15:26:27.110Z,1.10
2023-02-26T15:28:55.872Z,1.30
2023-02-26T15:31:33.273Z,1.20
2023-02-26T15:34:01.150Z,1.20
2023-02-26T15:36:30.692Z,1.20
2023-02-26T15:39:03.954Z,1.10
2023-02-26T15:41:32.126Z,1.10
2023-02-26T15:44:10.700Z,1.10
2023-02-26T15:46:43.972Z,1.10
2023-02-26T15:49:24.615Z,1.20
2023-02-26T15:51:53.068Z,1.20
2023-02-26T15:54:24.353Z,1.20
2023-02-26T15:56:52.047Z,1.10
2023-02-26T15:59:24.469Z,1.10
2023-02-26T16:01:51.349Z,1.10
2023-02-26T16:04:22.197Z,1.10
2023-02-26T16:06:58.392Z,1.10
2023-02-26T16:09:37.368Z,1.10
2023-02-26T16:12:23.102Z,1.10
2023-02-26T16:15:03.105Z,1.00
2023-02-26T16:17:40.558Z,1.00
2023-02-26T16:20:15.281Z,1.00
2023-02-26T16:22:52.133Z,1.00
2023-02-26T16:25:36.118Z,0.90
2023-02-26T16:28:21.023Z,0.90
2023-02-26T16:30:54.957Z,1.10
2023-02-26T16:33:25.152Z,1.00
2023-02-26T16:36:24.620Z,1.10
2023-02-26T16:39:02.898Z,1.10
2023-02-26T16:41:35.809Z,1.10
2023-02-26T16:44:31.371Z,1.20
2023-02-26T16:46:59.944Z,1.10
2023-02-26T16:49:32.006Z,1.20
2023-02-26T16:52:00.094Z,1.10
2023-02-26T16:54:42.139Z,1.10
2023-02-26T16:57:39.826Z,1.10
2023-02-26T17:00:21.106Z,1.00
2023-02-26T17:02:51.849Z,1.10
2023-02-26T17:05:24.910Z,1.00
2023-02-26T17:08:17.663Z,0.90
2023-02-26T17:10:51.763Z,1.00
2023-02-26T17:13:26.438Z,1.00
2023-02-26T17:15:54.401Z,0.90
2023-02-26T17:18:21.750Z,0.90
2023-02-26T17:20:50.473Z,1.00
2023-02-26T17:23:19.959Z,1.10
2023-02-26T17:25:51.027Z,0.90
2023-02-26T17:28:25.204Z,0.90
2023-02-26T17:30:52.768Z,1.00
2023-02-26T17:33:19.924Z,0.70
2023-02-26T17:35:47.195Z,0.80
2023-02-26T17:38:16.013Z,0.80
2023-02-26T17:40:45.669Z,0.80
2023-02-26T17:43:12.437Z,0.90
2023-02-26T17:45:40.971Z,0.90
2023-02-26T17:48:09.200Z,0.90
2023-02-26T17:50:55.769Z,0.90
2023-02-26T17:53:24.550Z,1.00
2023-02-26T17:55:53.620Z,0.90
2023-02-26T17:58:27.972Z,0.90
2023-02-26T18:00:55.618Z,0.90
2023-02-26T18:03:22.768Z,1.00
2023-02-26T18:05:50.833Z,1.10
2023-02-26T18:08:39.743Z,0.90
2023-02-26T18:11:07.661Z,1.00
2023-02-26T18:13:34.846Z,1.00
2023-02-26T18:16:03.304Z,1.10
2023-02-26T18:18:32.008Z,1.10
2023-02-26T18:20:59.678Z,1.20
2023-02-26T18:23:26.570Z,1.10
2023-02-26T18:25:54.760Z,1.10
2023-02-26T18:28:27.417Z,1.10
2023-02-26T18:30:55.623Z,1.00
2023-02-26T18:33:23.318Z,0.90
2023-02-26T18:35:57.159Z,0.90
2023-02-26T18:38:27.146Z,0.80
2023-02-26T18:40:54.770Z,0.80
2023-02-26T18:43:21.684Z,0.80
2023-02-26T18:45:51.311Z,0.80
2023-02-26T18:48:20.574Z,0.70
2023-02-26T18:50:49.045Z,0.70
2023-02-26T18:53:18.019Z,0.70
2023-02-26T18:55:45.255Z,0.60
2023-02-26T18:58:13.290Z,0.70
2023-02-26T19:00:40.148Z,0.70
2023-02-26T19:03:09.344Z,0.80
2023-02-26T19:05:37.826Z,0.80
2023-02-26T19:08:06.154Z,0.70
2023-02-26T19:10:34.349Z,0.70
2023-02-26T19:13:04.283Z,0.70
2023-02-26T19:15:32.158Z,0.60
2023-02-26T19:18:01.341Z,0.70
2023-02-26T19:20:28.157Z,0.70
2023-02-26T19:22:57.596Z,0.70
2023-02-26T19:25:27.413Z,0.70
2023-02-26T19:27:56.090Z,1.00
2023-02-26T19:30:24.454Z,0.90
2023-02-26T19:32:52.310Z,0.90
2023-02-26T19:35:20.636Z,1.00
2023-02-26T19:37:47.970Z,1.10
2023-02-26T19:40:19.608Z,1.20
2023-02-26T19:42:47.789Z,1.20
2023-02-26T19:45:16.078Z,1.20
2023-02-26T19:47:43.455Z,1.20
2023-02-26T19:50:10.923Z,1.10
2023-02-26T19:52:37.835Z,1.20
2023-02-26T19:55:06.775Z,1.40
2023-02-26T19:57:33.838Z,1.30
2023-02-26T20:00:00.797Z,1.40
2023-02-26T20:02:27.641Z,1.30
2023-02-26T20:04:54.847Z,1.30
2023-02-26T20:07:21.699Z,1.30
2023-02-26T20:09:49.898Z,1.30
2023-02-26T20:12:17.167Z,1.10
2023-02-26T20:14:44.031Z,1.10
2023-02-26T20:17:11.234Z,1.00
2023-02-26T20:19:38.992Z,1.00
2023-02-26T20:22:06.326Z,0.90
2023-02-26T20:24:34.145Z,0.90
2023-02-26T20:27:01.261Z,0.80
2023-02-26T20:29:30.763Z,0.90
2023-02-26T20:31:59.881Z,0.90
2023-02-26T20:34:28.080Z,1.00
2023-02-26T20:36:56.305Z,0.90
2023-02-26T20:39:23.785Z,1.00
2023-02-26T20:42:14.743Z,1.00
2023-02-26T20:44:43.925Z,1.00
2023-02-26T20:47:10.748Z,0.90
2023-02-26T20:49:38.073Z,0.90
2023-02-26T20:52:06.711Z,0.90
2023-02-26T20:54:33.479Z,1.00
2023-02-26T20:57:01.100Z,0.90
2023-02-26T20:59:29.058Z,0.90
2023-02-26T21:01:58.146Z,1.00
2023-02-26T21:04:25.961Z,0.90
2023-02-26T21:06:55.287Z,0.90
2023-02-26T21:09:22.699Z,0.90
2023-02-26T21:11:51.219Z,1.00
2023-02-26T21:14:18.056Z,1.00
2023-02-26T21:16:45.187Z,1.00
2023-02-26T21:19:12.107Z,1.00
2023-02-26T21:21:38.856Z,1.00
2023-02-26T21:24:06.485Z,1.00
2023-02-26T21:26:35.888Z,1.00
2023-02-26T21:29:04.939Z,1.10
2023-02-26T21:31:32.489Z,1.10
2023-02-26T21:34:08.278Z,1.00
2023-02-26T21:36:44.005Z,1.00
2023-02-26T21:39:10.818Z,1.00
2023-02-26T21:41:38.039Z,1.00
2023-02-26T21:44:05.503Z,1.00
2023-02-26T21:46:34.053Z,1.00
2023-02-26T21:49:01.826Z,1.00
2023-02-26T21:51:29.007Z,0.90
2023-02-26T21:53:57.247Z,1.00
2023-02-26T21:56:24.864Z,1.00
2023-02-26T21:58:52.005Z,1.00
2023-02-26T22:01:20.041Z,1.00
2023-02-26T22:03:47.312Z,1.00
2023-02-26T22:06:14.320Z,1.10
2023-02-26T22:08:41.074Z,1.00
2023-02-26T22:11:08.301Z,1.10
2023-02-26T22:13:35.470Z,1.10
2023-02-26T22:16:02.549Z,1.10
2023-02-26T22:18:29.421Z,1.10
2023-02-26T22:20:56.200Z,1.30
2023-02-26T22:23:22.981Z,1.30
2023-02-26T22:25:49.778Z,1.10
2023-02-26T22:28:17.259Z,1.20
2023-02-26T22:30:44.126Z,1.10
2023-02-26T22:33:11.375Z,1.10
2023-02-26T22:35:38.457Z,1.00
2023-02-26T22:38:05.421Z,1.00
2023-02-26T22:40:32.892Z,1.00
2023-02-26T22:42:59.734Z,0.80
2023-02-26T22:45:26.505Z,0.90
2023-02-26T22:47:53.300Z,1.00
2023-02-26T22:50:20.375Z,1.10
2023-02-26T22:52:48.552Z,1.10
2023-02-26T22:55:15.675Z,1.10
2023-02-26T22:57:42.847Z,1.10
2023-02-26T23:00:18.923Z,0.90
2023-02-26T23:02:51.026Z,0.90
2023-02-26T23:05:19.525Z,0.80
2023-02-26T23:07:47.024Z,0.80
2023-02-26T23:10:16.760Z,0.80
2023-02-26T23:12:44.165Z,0.80
2023-02-26T23:15:14.277Z,0.80
2023-02-26T23:17:41.836Z,0.90
2023-02-26T23:20:14.397Z,0.90
2023-02-26T23:22:43.752Z,0.80
2023-02-26T23:25:12.225Z,0.80
2023-02-26T23:27:39.277Z,0.90
2023-02-26T23:30:06.513Z,0.80
2023-02-26T23:32:33.283Z,0.80
2023-02-26T23:35:00.690Z,0.80
2023-02-26T23:37:27.423Z,0.80
2023-02-26T23:39:54.588Z,0.80
2023-02-26T23:42:21.831Z,0.80
2023-02-26T23:44:49.768Z,0.90
2023-02-26T23:47:16.663Z,0.80
2023-02-26T23:49:43.875Z,0.70
2023-02-26T23:52:10.626Z,0.70
2023-02-26T23:54:40.112Z,0.70
2023-02-26T23:57:07.100Z,0.80
2023-02-26T23:59:34.357Z,0.80
